Time;durP1;ratioP1;P1;durP2;ratioP2;P2;SDS_P1;SDS_P2;PMS_P1;PMS_P2;Temp;Humidity;BMP_temperature;BMP_pressure;BME280_temperature;BME280_humidity;BME280_pressure;Samples;Min_cycle;Max_cycle;Signal;HPM_P1;HPM_P2
2023/03/27 00:00:17;;;;;;;36.37;10.87;;;;;;;5.65;100.00;99371.70;4968183;57;1136771;-69
2023/03/27 00:05:24;;;;;;;22.43;7.73;;;;;;;5.65;100.00;99376.94;5002897;57;1140947;-72
2023/03/27 00:10:30;;;;;;;33.23;6.83;;;;;;;5.55;100.00;99378.09;5107230;56;1136765;-73
2023/03/27 00:15:37;;;;;;;17.50;6.70;;;;;;;5.45;100.00;99381.52;5022561;56;1136687;-70
2023/03/27 00:20:43;;;;;;;22.63;5.30;;;;;;;5.34;100.00;99389.36;4957369;57;1136914;-69
2023/03/27 00:25:53;;;;;;;19.62;5.15;;;;;;;5.16;100.00;99412.52;5023383;56;1136843;-71
2023/03/27 00:30:59;;;;;;;18.87;5.57;;;;;;;4.92;100.00;99413.33;5003989;57;1136667;-71
2023/03/27 00:36:05;;;;;;;15.97;4.07;;;;;;;4.88;100.00;99418.92;5002704;57;1136605;-75
2023/03/27 00:41:11;;;;;;;11.00;3.97;;;;;;;4.81;100.00;99426.84;5023339;56;1138792;-75
2023/03/27 00:46:32;;;;;;;24.70;4.37;;;;;;;4.82;100.00;99441.61;5003848;56;1138793;-68
2023/03/27 00:51:42;;;;;;;15.03;3.40;;;;;;;4.74;100.00;99448.69;5071172;56;1136693;-67
2023/03/27 00:56:48;;;;;;;14.30;2.75;;;;;;;4.55;100.00;99455.71;5107283;56;1136627;-68
2023/03/27 01:01:54;;;;;;;11.67;3.97;;;;;;;4.36;100.00;99451.38;5078179;56;1136976;-69
2023/03/27 01:07:02;;;;;;;19.27;4.77;;;;;;;4.23;100.00;99453.17;4989746;57;1136590;-71
2023/03/27 01:12:44;;;;;;;9.87;3.67;;;;;;;4.06;100.00;99460.86;5086446;56;1136650;-72
2023/03/27 01:18:08;;;;;;;16.20;4.20;;;;;;;3.94;100.00;99466.08;4920919;57;1134862;-69
2023/03/27 01:23:54;;;;;;;24.05;4.90;;;;;;;3.87;100.00;99454.70;5056147;56;1136749;-71
2023/03/27 01:29:17;;;;;;;13.33;3.87;;;;;;;3.87;100.00;99448.64;4979739;57;1136823;-70
2023/03/27 01:34:44;;;;;;;13.18;4.70;;;;;;;3.84;100.00;99452.30;4929836;58;1137001;-71
2023/03/27 01:40:13;;;;;;;14.85;5.20;;;;;;;3.83;100.00;99450.61;5047682;56;1136821;-75
2023/03/27 01:45:29;;;;;;;10.07;3.40;;;;;;;3.78;100.00;99450.11;4971210;57;1136827;-69
2023/03/27 01:50:53;;;;;;;10.93;3.23;;;;;;;3.80;100.00;99445.61;4964958;57;1136612;-70
2023/03/27 01:56:09;;;;;;;10.20;1.97;;;;;;;3.74;100.00;99451.71;5126178;56;1136775;-72
2023/03/27 02:01:22;;;;;;;9.90;2.62;;;;;;;3.56;100.00;99456.38;5055876;56;1136633;-66
2023/03/27 02:06:44;;;;;;;5.83;2.57;;;;;;;3.42;100.00;99457.75;4982460;57;1134866;-70
2023/03/27 02:12:03;;;;;;;11.90;3.43;;;;;;;3.31;100.00;99458.92;5004033;57;1134768;-71
2023/03/27 02:17:12;;;;;;;15.37;3.33;;;;;;;3.25;100.00;99471.06;4984637;57;1136694;-74
2023/03/27 02:22:18;;;;;;;4.87;1.93;;;;;;;3.21;100.00;99472.22;5146580;55;1136846;-68
2023/03/27 02:27:45;;;;;;;5.03;1.60;;;;;;;3.17;100.00;99471.10;5153341;55;1134682;-72
2023/03/27 02:33:07;;;;;;;5.87;1.90;;;;;;;3.05;100.00;99459.30;5173467;55;1134566;-74
2023/03/27 02:38:22;;;;;;;10.10;2.23;;;;;;;2.88;100.00;99461.66;5056344;55;1134894;-69
2023/03/27 02:43:50;;;;;;;6.43;1.93;;;;;;;2.81;100.00;99465.11;4987775;56;1136831;-71
2023/03/27 02:49:03;;;;;;;6.40;1.83;;;;;;;2.71;100.00;99470.55;5004734;57;1134504;-69
2023/03/27 02:54:20;;;;;;;5.47;1.40;;;;;;;2.66;100.00;99475.67;5033819;56;1134513;-67
2023/03/27 02:59:43;;;;;;;6.50;2.02;;;;;;;2.55;100.00;99474.20;5046965;56;1134516;-72
2023/03/27 03:04:56;;;;;;;2.30;1.80;;;;;;;2.44;100.00;99476.97;4994053;56;1134780;-73
2023/03/27 03:10:07;;;;;;;4.20;2.13;;;;;;;2.37;100.00;99477.45;5012385;56;1134600;-72
2023/03/27 03:15:13;;;;;;;6.50;1.97;;;;;;;2.29;100.00;99484.42;4910729;57;1134631;-70
2023/03/27 03:20:20;;;;;;;3.97;1.60;;;;;;;2.27;100.00;99478.48;4917063;58;1134685;-72
2023/03/27 03:25:26;;;;;;;2.50;1.70;;;;;;;2.25;100.00;99478.20;4985117;57;1134674;-68
2023/03/27 03:30:32;;;;;;;3.20;1.63;;;;;;;2.17;100.00;99490.84;5004672;58;1134823;-70
2023/03/27 03:35:41;;;;;;;2.33;1.50;;;;;;;2.07;100.00;99491.86;4897491;58;1134474;-74
2023/03/27 03:40:49;;;;;;;2.92;1.60;;;;;;;2.06;100.00;99501.45;4905321;58;1134553;-72
2023/03/27 03:45:56;;;;;;;1.45;1.10;;;;;;;2.10;100.00;99517.77;5005040;56;1134697;-71
2023/03/27 03:51:02;;;;;;;1.50;1.20;;;;;;;2.09;100.00;99516.94;4901857;57;1134716;-70
2023/03/27 03:56:08;;;;;;;5.97;3.23;;;;;;;2.03;100.00;99526.88;4963142;56;1134842;-69
2023/03/27 04:01:19;;;;;;;5.17;2.57;;;;;;;2.01;100.00;99526.11;4980852;57;1134813;-69
2023/03/27 04:06:29;;;;;;;4.00;1.90;;;;;;;2.02;100.00;99533.02;5005995;57;1134610;-73
2023/03/27 04:11:34;;;;;;;5.47;2.40;;;;;;;2.05;100.00;99545.42;5001861;55;1134676;-64
2023/03/27 04:16:41;;;;;;;2.83;1.50;;;;;;;2.09;100.00;99552.14;5031921;56;1141777;-72
2023/03/27 04:21:48;;;;;;;4.83;1.73;;;;;;;2.13;100.00;99561.94;5047667;57;1134696;-69
2023/03/27 04:26:57;;;;;;;1.90;1.37;;;;;;;2.13;100.00;99554.11;5029842;56;1134788;-66
2023/03/27 04:32:04;;;;;;;5.33;1.67;;;;;;;2.18;100.00;99565.09;5029163;56;1134668;-69
2023/03/27 04:37:19;;;;;;;3.70;1.65;;;;;;;2.18;100.00;99567.70;4997315;56;1134563;-70
2023/03/27 04:42:26;;;;;;;6.87;1.37;;;;;;;2.16;100.00;99577.84;5042091;57;1134457;-70
2023/03/27 04:47:32;;;;;;;5.43;2.00;;;;;;;2.18;100.00;99578.60;5033497;56;1134534;-68
2023/03/27 04:52:38;;;;;;;4.17;1.50;;;;;;;2.12;100.00;99581.13;5029147;56;1134530;-71
2023/03/27 04:57:48;;;;;;;1.92;1.65;;;;;;;2.05;100.00;99587.14;5043051;56;1145153;-67
2023/03/27 05:02:55;;;;;;;5.53;1.75;;;;;;;2.05;100.00;99601.95;5051751;56;1134683;-70
2023/03/27 05:08:08;;;;;;;2.47;1.60;;;;;;;1.99;100.00;99597.07;5021087;56;1134656;-68
2023/03/27 05:13:15;;;;;;;5.33;1.93;;;;;;;1.96;100.00;99611.61;4977433;57;1134730;-70
2023/03/27 05:18:21;;;;;;;4.70;3.10;;;;;;;1.98;100.00;99621.03;5051736;56;1134625;-71
2023/03/27 05:23:29;;;;;;;7.87;3.00;;;;;;;1.97;100.00;99633.69;5006795;56;1134623;-67
2023/03/27 05:28:35;;;;;;;6.10;2.97;;;;;;;1.94;100.00;99644.75;4985554;57;1134589;-67
2023/03/27 05:33:42;;;;;;;3.02;2.04;;;;;;;1.95;100.00;99656.86;5041287;56;1134612;-69
2023/03/27 05:38:48;;;;;;;2.37;1.52;;;;;;;1.94;100.00;99661.70;5008817;57;1134630;-69
2023/03/27 05:43:55;;;;;;;6.50;3.13;;;;;;;1.94;100.00;99667.76;5014622;57;1134677;-68
2023/03/27 05:49:03;;;;;;;3.33;2.13;;;;;;;1.92;100.00;99669.61;5014782;57;1134571;-67
2023/03/27 05:54:09;;;;;;;6.10;1.77;;;;;;;1.90;100.00;99681.88;5031828;56;1134708;-68
2023/03/27 05:59:28;;;;;;;4.90;2.13;;;;;;;1.92;100.00;99686.55;5045154;56;1134621;-68
2023/03/27 06:04:35;;;;;;;4.83;1.90;;;;;;;1.95;100.00;99687.70;4957167;57;1134635;-68
2023/03/27 06:09:44;;;;;;;4.42;2.67;;;;;;;1.99;100.00;99697.47;5008664;57;1134671;-70
2023/03/27 06:15:08;;;;;;;2.40;1.98;;;;;;;2.07;100.00;99708.33;4986147;56;1134708;-72
2023/03/27 06:20:15;;;;;;;9.53;3.40;;;;;;;2.25;100.00;99709.08;4893117;57;1134652;-69
2023/03/27 06:25:25;;;;;;;3.00;1.50;;;;;;;2.39;100.00;99716.96;4932907;57;1134796;-68
2023/03/27 06:30:31;;;;;;;8.27;2.70;;;;;;;2.46;100.00;99714.36;5030047;56;1134553;-73
2023/03/27 06:35:39;;;;;;;4.93;2.33;;;;;;;2.50;100.00;99722.40;5012702;56;1134567;-70
2023/03/27 06:40:46;;;;;;;5.07;1.87;;;;;;;2.55;100.00;99732.59;4981145;57;1134632;-70
2023/03/27 06:45:54;;;;;;;9.17;3.33;;;;;;;2.60;100.00;99734.48;4999780;57;1134692;-72
2023/03/27 06:51:21;;;;;;;3.60;2.03;;;;;;;2.54;100.00;99741.34;4949581;57;1134526;-71
2023/03/27 06:56:25;;;;;;;7.72;2.35;;;;;;;2.47;100.00;99748.66;5068142;56;1134548;-74
2023/03/27 07:01:51;;;;;;;8.20;2.55;;;;;;;2.57;100.00;99752.92;5004967;56;1134738;-68
2023/03/27 07:06:57;;;;;;;2.77;1.35;;;;;;;2.65;100.00;99758.53;5025199;56;1134730;-71
2023/03/27 07:12:05;;;;;;;1.52;1.17;;;;;;;2.71;96.90;99761.64;5068084;56;1134559;-73
2023/03/27 07:17:12;;;;;;;2.27;1.80;;;;;;;2.74;94.30;99773.69;5088010;56;1132392;-71
2023/03/27 07:22:22;;;;;;;1.10;0.57;;;;;;;2.87;94.50;99774.66;5063708;56;1132624;-73
2023/03/27 07:27:28;;;;;;;2.87;1.37;;;;;;;3.02;92.60;99790.75;5154081;55;1132552;-71
2023/03/27 07:32:36;;;;;;;1.85;1.30;;;;;;;2.98;92.52;99793.62;5087757;56;1132435;-73
2023/03/27 07:37:42;;;;;;;1.30;0.67;;;;;;;2.94;91.74;99799.94;4990586;57;1132489;-70
2023/03/27 07:43:06;;;;;;;0.95;0.78;;;;;;;2.84;90.53;99804.86;4985270;57;1132564;-68
2023/03/27 07:48:15;;;;;;;0.60;0.53;;;;;;;2.72;91.96;99818.16;5004365;58;1132590;-65
2023/03/27 07:53:21;;;;;;;1.60;1.50;;;;;;;2.73;90.48;99821.61;5031587;56;1132656;-68
2023/03/27 07:58:28;;;;;;;2.70;1.15;;;;;;;2.88;92.96;99829.03;4949265;57;1132539;-68
2023/03/27 08:03:36;;;;;;;2.57;1.10;;;;;;;2.95;91.22;99838.19;5000458;57;1132468;-69
2023/03/27 08:08:42;;;;;;;4.50;1.97;;;;;;;2.92;87.31;99852.25;5024972;56;1132544;-72
2023/03/27 08:13:48;;;;;;;2.37;1.20;;;;;;;2.99;85.98;99855.38;5025534;56;1132500;-70
2023/03/27 08:18:53;;;;;;;9.80;1.17;;;;;;;2.97;83.23;99865.06;5124028;56;1132517;-68
2023/03/27 08:24:04;;;;;;;1.62;0.62;;;;;;;3.00;85.74;99872.27;5040484;56;1132676;-68
2023/03/27 08:29:12;;;;;;;1.70;0.90;;;;;;;3.35;84.94;99875.95;5120736;56;1132567;-70
2023/03/27 08:34:20;;;;;;;1.43;0.70;;;;;;;3.73;86.36;99874.51;5103437;55;1132668;-71
2023/03/27 08:39:29;;;;;;;2.40;1.13;;;;;;;3.94;82.75;99880.23;5116783;56;1132466;-68
2023/03/27 08:44:37;;;;;;;1.60;0.50;;;;;;;3.98;80.28;99900.49;5104861;55;1132531;-69
2023/03/27 08:49:59;;;;;;;1.30;0.50;;;;;;;4.03;77.23;99886.20;4943234;56;1132831;-68
2023/03/27 08:55:18;;;;;;;;;;;;;;;4.12;80.24;99890.91;5047927;56;1132486;-68
2023/03/27 09:00:32;;;;;;;0.60;0.60;;;;;;;4.09;81.34;99900.24;5058499;56;969889;-71
2023/03/27 09:05:50;;;;;;;4.23;1.10;;;;;;;4.06;77.43;99905.66;5031377;56;1130487;-71
2023/03/27 09:11:27;;;;;;;0.80;0.80;;;;;;;4.29;81.97;99908.63;5049405;56;1132430;-73
2023/03/27 09:16:47;;;;;;;2.00;0.60;;;;;;;4.68;77.31;99911.88;5012737;56;1132641;-71
2023/03/27 09:21:59;;;;;;;2.60;0.90;;;;;;;4.95;75.08;99916.66;4986285;57;1132511;-68
2023/03/27 09:27:19;;;;;;;1.22;0.60;;;;;;;4.98;71.25;99929.58;5036206;56;1132537;-70
2023/03/27 09:32:27;;;;;;;2.77;1.03;;;;;;;4.85;67.50;99924.75;4950853;57;1132719;-68
2023/03/27 09:37:33;;;;;;;1.07;0.60;;;;;;;4.81;70.55;99921.95;5021615;56;1132809;-69
2023/03/27 09:42:43;;;;;;;3.90;1.80;;;;;;;4.68;67.60;99940.22;5012989;57;1132454;-66
2023/03/27 09:48:02;;;;;;;4.97;2.57;;;;;;;4.68;72.18;99945.45;5034070;56;1132641;-64
2023/03/27 09:53:21;;;;;;;2.40;0.83;;;;;;;4.57;70.00;99944.83;5043837;55;1132648;-71
2023/03/27 09:58:47;;;;;;;1.70;1.30;;;;;;;4.36;65.59;99947.44;4965027;56;1132683;-69
2023/03/27 10:03:58;;;;;;;3.90;0.77;;;;;;;4.26;68.28;99954.64;5054097;56;1132576;-68
2023/03/27 10:09:30;;;;;;;0.80;0.80;;;;;;;4.17;67.63;99966.49;4977072;56;1132617;-68
2023/03/27 10:14:42;;;;;;;0.73;0.70;;;;;;;4.16;65.89;99972.66;5028602;56;1132478;-72
2023/03/27 10:19:53;;;;;;;3.23;1.13;;;;;;;4.20;69.17;99979.41;5023302;57;1132725;-72
2023/03/27 10:25:02;;;;;;;1.20;0.60;;;;;;;4.19;68.62;99977.72;5132142;55;1132594;-71
2023/03/27 10:30:33;;;;;;;1.33;0.70;;;;;;;4.21;66.93;99988.47;5018927;55;1132714;-68
2023/03/27 10:35:45;;;;;;;3.50;1.63;;;;;;;4.38;68.07;99977.45;4966757;57;1132495;-70
2023/03/27 10:40:57;;;;;;;3.93;1.40;;;;;;;4.50;65.41;99987.17;5061956;55;1132736;-71
2023/03/27 10:46:14;;;;;;;4.42;2.55;;;;;;;4.53;66.70;100011.41;4950635;58;1132669;-80
2023/03/27 10:51:28;;;;;;;4.73;2.83;;;;;;;4.75;68.41;100009.61;4979488;58;1134689;-79
2023/03/27 10:57:04;;;;;;;1.27;0.70;;;;;;;4.70;64.31;100009.53;4974245;57;1134819;-72
2023/03/27 11:02:20;;;;;;;2.10;1.20;;;;;;;4.59;64.48;100016.25;4972351;56;1135145;-76
2023/03/27 11:07:36;;;;;;;3.00;1.10;;;;;;;4.63;69.25;100021.31;4995415;57;1134565;-77
2023/03/27 11:12:47;;;;;;;3.80;1.30;;;;;;;4.64;66.65;100023.00;4943819;57;1134553;-76
2023/03/27 11:18:19;;;;;;;0.80;0.80;;;;;;;4.53;66.12;100033.66;5045163;56;1134635;-81
2023/03/27 11:23:34;;;;;;;3.70;1.00;;;;;;;4.46;66.12;100041.97;5044160;56;1134622;-75
2023/03/27 11:29:08;;;;;;;2.70;1.87;;;;;;;4.87;67.20;100043.40;5016283;56;1134659;-80
2023/03/27 11:34:45;;;;;;;1.43;1.00;;;;;;;4.87;67.20;100043.40;5067115;56;1134619;-76
2023/03/27 11:40:19;;;;;;;2.00;1.60;;;;;;;4.92;65.47;100054.42;5070085;56;1134663;-82
2023/03/27 11:45:30;;;;;;;2.03;1.30;;;;;;;4.72;65.58;100054.82;5073601;56;1134625;-75
2023/03/27 11:50:55;;;;;;;1.90;1.50;;;;;;;4.83;68.90;100067.63;5046109;56;1134594;-73
2023/03/27 11:56:09;;;;;;;1.32;0.60;;;;;;;4.87;64.97;100059.12;5067535;56;1134581;-75
2023/03/27 12:01:29;;;;;;;1.60;0.50;;;;;;;4.84;60.55;100052.28;4918010;56;1134666;-74
2023/03/27 12:07:05;;;;;;;2.67;1.00;;;;;;;4.80;60.91;100072.20;4851435;58;1135046;-75
2023/03/27 12:12:42;;;;;;;2.30;1.17;;;;;;;4.64;65.05;100090.63;4934234;57;1134569;-79
2023/03/27 12:18:33;;;;;;;5.47;1.70;;;;;;;4.55;62.69;100096.42;4963850;57;1134633;-78
2023/03/27 12:24:09;;;;;;;0.33;0.33;;;;;;;4.71;61.86;100087.19;4994143;57;1134577;-80
2023/03/27 12:29:53;;;;;;;2.20;0.87;;;;;;;4.72;59.19;100092.33;5021161;56;1134548;-77
2023/03/27 12:35:07;;;;;;;0.80;0.73;;;;;;;4.60;61.49;100093.05;4985050;56;1134600;-72
2023/03/27 12:40:30;;;;;;;0.87;0.87;;;;;;;4.54;61.39;100098.20;4938096;57;1134848;-78
2023/03/27 12:45:38;;;;;;;1.50;0.95;;;;;;;4.67;63.70;100095.69;5043710;56;1134576;-79
2023/03/27 12:50:54;;;;;;;1.60;1.23;;;;;;;4.87;61.44;100107.12;4941935;57;1134582;-79
2023/03/27 12:56:19;;;;;;;3.00;0.80;;;;;;;4.93;63.46;100101.49;5057916;56;1134659;-79
2023/03/27 13:01:46;;;;;;;1.87;1.00;;;;;;;5.42;60.49;100110.73;4904712;57;1134520;-78
2023/03/27 13:07:24;;;;;;;8.13;3.83;;;;;;;5.72;57.23;100112.72;4902244;58;1181653;-75
2023/03/27 13:12:57;;;;;;;1.43;0.80;;;;;;;5.56;59.49;100118.09;4903025;58;1134554;-75
2023/03/27 13:18:25;;;;;;;1.17;0.88;;;;;;;5.18;57.18;100128.84;5059976;56;1134686;-75
2023/03/27 13:24:02;;;;;;;4.30;2.67;;;;;;;5.05;59.89;100133.97;4981433;56;1134908;-80
2023/03/27 13:29:18;;;;;;;3.63;1.10;;;;;;;5.13;59.13;100138.29;4994986;56;1134594;-76
2023/03/27 13:34:41;;;;;;;6.77;2.57;;;;;;;5.48;57.64;100138.73;5008201;56;1134622;-73
2023/03/27 13:40:10;;;;;;;191.77;166.73;;;;;;;5.77;56.57;100127.71;5052922;56;1134793;-74
2023/03/27 13:45:56;;;;;;;4.60;4.20;;;;;;;5.74;55.16;100146.73;4998068;57;1143062;-77
2023/03/27 13:51:28;;;;;;;5.80;2.40;;;;;;;5.46;54.04;100151.10;4961602;56;1134829;-75
2023/03/27 13:56:47;;;;;;;5.27;2.37;;;;;;;5.48;55.24;100154.95;5013645;56;1134681;-73
2023/03/27 14:02:19;;;;;;;3.57;2.63;;;;;;;5.51;55.72;100166.06;4983536;57;1134808;-74
2023/03/27 14:08:07;;;;;;;4.70;2.20;;;;;;;5.71;56.71;100180.56;4993651;57;1134680;-77
2023/03/27 14:13:43;;;;;;;3.77;2.20;;;;;;;5.93;55.65;100182.25;4950835;56;1134687;-78
2023/03/27 14:19:07;;;;;;;5.17;3.20;;;;;;;5.93;53.05;100192.75;4931323;57;1134802;-82
2023/03/27 14:24:31;;;;;;;15.33;4.20;;;;;;;6.21;54.60;100205.41;5138423;55;1134596;-77
2023/03/27 14:29:41;;;;;;;4.13;1.50;;;;;;;6.53;56.45;100220.39;4989411;57;1136831;-80
2023/03/27 14:35:01;;;;;;;8.83;3.00;;;;;;;6.60;45.98;100222.50;4998883;56;1134516;-80
2023/03/27 14:40:29;;;;;;;12.13;6.15;;;;;;;6.53;46.61;100225.18;5075299;56;1135735;-78
2023/03/27 14:45:39;;;;;;;6.03;3.60;;;;;;;6.54;48.63;100228.18;4997396;56;1137198;-82
2023/03/27 14:50:49;;;;;;;5.00;2.23;;;;;;;6.11;44.86;100241.09;4994015;56;1134695;-80
2023/03/27 14:55:56;;;;;;;1.53;1.27;;;;;;;5.73;45.36;100247.37;5014529;56;1134750;-80
2023/03/27 15:01:07;;;;;;;3.17;1.63;;;;;;;5.42;47.03;100255.81;4975339;57;1135050;-80
2023/03/27 15:06:19;;;;;;;2.15;1.37;;;;;;;5.55;48.79;100255.91;4974206;57;1134730;-78
2023/03/27 15:11:38;;;;;;;2.50;1.80;;;;;;;5.56;48.18;100257.13;4973452;56;1134856;-75
2023/03/27 15:17:13;;;;;;;2.70;1.90;;;;;;;5.36;47.41;100263.19;5034155;56;1134767;-79
2023/03/27 15:22:32;;;;;;;8.53;4.57;;;;;;;5.17;48.04;100277.89;5006875;56;1134791;-82
2023/03/27 15:27:42;;;;;;;27.27;12.33;;;;;;;5.01;49.41;100279.72;4985329;56;1135230;-75
2023/03/27 15:32:52;;;;;;;23.30;9.38;;;;;;;5.02;49.70;100287.97;5032177;57;1138948;-79
2023/03/27 15:37:58;;;;;;;5.47;3.00;;;;;;;5.10;49.08;100297.05;5016830;57;1136785;-80
2023/03/27 15:43:26;;;;;;;5.70;2.33;;;;;;;5.21;49.20;100301.66;5013636;56;1134595;-83
2023/03/27 15:48:36;;;;;;;4.37;1.53;;;;;;;5.39;49.74;100302.34;4958644;57;1134983;-79
2023/03/27 15:53:48;;;;;;;5.37;2.80;;;;;;;5.70;44.74;100298.73;4973407;57;1134999;-74
2023/03/27 15:59:06;;;;;;;1.92;1.82;;;;;;;5.70;44.74;100298.73;4978350;57;1135030;-82
2023/03/27 16:04:16;;;;;;;12.28;5.17;;;;;;;5.68;45.18;100311.94;5024634;56;1135219;-80
2023/03/27 16:09:32;;;;;;;7.97;3.25;;;;;;;5.43;45.08;100327.47;5011673;56;1136790;-80
2023/03/27 16:14:48;;;;;;;4.97;3.43;;;;;;;5.21;47.52;100335.27;5013870;57;1134685;-83
2023/03/27 16:20:06;;;;;;;11.00;6.63;;;;;;;5.33;49.57;100340.76;5029312;56;1134748;-80
2023/03/27 16:25:13;;;;;;;6.73;4.23;;;;;;;5.35;49.16;100351.50;5004466;56;1136794;-83
2023/03/27 16:30:34;;;;;;;14.78;8.28;;;;;;;5.36;48.53;100358.91;5007919;56;1134702;-78
2023/03/27 16:35:40;;;;;;;29.37;13.17;;;;;;;5.34;49.38;100367.36;5020418;56;1136745;-78
2023/03/27 16:40:46;;;;;;;22.77;10.80;;;;;;;5.29;49.63;100380.27;4921175;58;1138731;-74
2023/03/27 16:45:53;;;;;;;23.63;9.17;;;;;;;5.20;49.12;100382.55;4876611;57;1256300;-77
2023/03/27 16:50:59;;;;;;;16.50;6.30;;;;;;;5.15;49.56;100381.99;5016934;57;1136667;-76
2023/03/27 16:56:05;;;;;;;6.20;3.23;;;;;;;5.11;49.35;100387.88;4977038;57;1136603;-79
2023/03/27 17:01:11;;;;;;;9.33;4.37;;;;;;;5.03;50.19;100397.11;4946617;57;1134658;-74
2023/03/27 17:06:18;;;;;;;5.63;2.10;;;;;;;4.83;49.69;100403.47;5052675;56;1135293;-79
2023/03/27 17:11:24;;;;;;;6.12;2.00;;;;;;;4.68;49.06;100414.80;5094927;56;1135158;-77
2023/03/27 17:16:30;;;;;;;3.53;2.03;;;;;;;4.48;50.25;100414.09;5006561;56;1134903;-77
2023/03/27 17:21:35;;;;;;;6.73;4.13;;;;;;;4.41;50.92;100428.47;5008611;56;1134774;-79
2023/03/27 17:26:41;;;;;;;5.13;3.07;;;;;;;4.37;51.27;100428.23;5013505;56;1134638;-80
2023/03/27 17:31:46;;;;;;;4.33;2.50;;;;;;;4.31;51.20;100431.17;4974350;57;1134664;-79
2023/03/27 17:36:52;;;;;;;6.55;3.55;;;;;;;4.17;51.20;100431.05;5104069;55;1134647;-81
2023/03/27 17:41:58;;;;;;;8.90;3.98;;;;;;;4.11;52.03;100439.25;5105789;56;1134675;-79
2023/03/27 17:47:06;;;;;;;149.07;83.10;;;;;;;4.04;51.88;100440.48;5140991;55;1134575;-81
2023/03/27 17:52:12;;;;;;;128.70;60.45;;;;;;;4.06;53.36;100444.71;5082212;56;1141235;-78
2023/03/27 17:57:18;;;;;;;51.17;20.10;;;;;;;4.14;54.21;100448.22;5081185;56;1142939;-82
2023/03/27 18:02:24;;;;;;;56.30;22.37;;;;;;;4.25;54.95;100449.84;5100167;56;1138853;-73
2023/03/27 18:07:31;;;;;;;85.50;29.87;;;;;;;4.33;55.63;100446.34;5083115;56;1138932;-78
2023/03/27 18:12:36;;;;;;;66.67;26.83;;;;;;;4.36;56.42;100454.50;5040012;56;1138905;-83
2023/03/27 18:17:42;;;;;;;65.73;26.70;;;;;;;4.36;57.05;100452.73;5065052;56;1138973;-81
2023/03/27 18:22:48;;;;;;;76.33;26.52;;;;;;;4.32;57.91;100455.12;5075641;56;1138814;-80
2023/03/27 18:27:54;;;;;;;101.30;41.43;;;;;;;4.27;58.38;100462.84;5086138;56;1138830;-82
2023/03/27 18:32:59;;;;;;;112.97;46.10;;;;;;;4.19;58.90;100460.16;5086101;56;1141025;-69
2023/03/27 18:38:06;;;;;;;309.03;139.90;;;;;;;4.09;58.90;100458.11;4982954;57;1140930;-71
2023/03/27 18:43:11;;;;;;;204.93;72.87;;;;;;;3.95;59.02;100460.13;5004925;57;1143411;-70
2023/03/27 18:48:17;;;;;;;195.53;62.57;;;;;;;3.84;59.02;100458.03;4982156;57;1140891;-75
2023/03/27 18:53:23;;;;;;;87.87;31.03;;;;;;;3.71;58.42;100459.58;5068407;56;1140915;-72
2023/03/27 18:58:30;;;;;;;95.03;33.13;;;;;;;3.58;57.96;100455.89;4993005;57;1138963;-70
2023/03/27 19:03:36;;;;;;;115.33;49.03;;;;;;;3.54;58.91;100451.73;5085926;56;1138991;-71
2023/03/27 19:08:44;;;;;;;71.73;29.50;;;;;;;3.46;60.08;100447.36;5026954;56;1140821;-65
2023/03/27 19:13:49;;;;;;;66.25;28.62;;;;;;;3.06;60.99;100437.98;4944613;57;1138798;-67
2023/03/27 19:19:00;;;;;;;103.40;40.53;;;;;;;3.06;60.99;100437.98;4990291;57;1138965;-72
2023/03/27 19:24:13;;;;;;;74.12;30.48;;;;;;;3.02;61.78;100451.67;5031958;56;1140845;-69
2023/03/27 19:29:20;;;;;;;81.70;35.93;;;;;;;2.88;61.92;100448.02;4999565;57;1138866;-72
2023/03/27 19:34:28;;;;;;;60.85;28.50;;;;;;;2.69;62.37;100441.04;5021601;56;1139004;-71
2023/03/27 19:39:34;;;;;;;47.60;18.37;;;;;;;2.57;62.98;100439.45;5041328;56;1138954;-71
2023/03/27 19:44:40;;;;;;;64.60;26.97;;;;;;;2.56;63.59;100428.16;4971671;57;1138778;-72
2023/03/27 19:49:46;;;;;;;51.93;23.80;;;;;;;2.59;64.17;100424.11;5019990;56;1138673;-65
2023/03/27 19:54:54;;;;;;;48.70;20.77;;;;;;;2.62;64.25;100427.02;5066153;56;1138762;-64
2023/03/27 20:00:03;;;;;;;56.40;23.18;;;;;;;2.55;64.54;100418.64;5075561;56;1148553;-67
2023/03/27 20:05:10;;;;;;;69.50;23.40;;;;;;;2.54;64.94;100406.96;5051254;56;1138826;-69
2023/03/27 20:10:17;;;;;;;63.48;20.37;;;;;;;2.55;65.41;100402.13;4953882;58;1138924;-69
2023/03/27 20:15:23;;;;;;;95.63;26.90;;;;;;;2.52;65.29;100399.20;4993923;58;1138686;-70
2023/03/27 20:20:28;;;;;;;75.73;24.20;;;;;;;2.48;65.53;100396.33;5003072;57;1138849;-73
2023/03/27 20:25:34;;;;;;;40.37;16.73;;;;;;;2.39;65.25;100400.23;4953593;57;1138902;-72
2023/03/27 20:30:41;;;;;;;30.87;12.97;;;;;;;2.10;64.62;100383.74;5022222;57;1138855;-72
2023/03/27 20:35:47;;;;;;;33.35;11.93;;;;;;;1.95;64.78;100379.21;4990182;57;1138856;-73
2023/03/27 20:40:53;;;;;;;37.67;15.45;;;;;;;1.86;64.88;100373.92;4990834;56;1138809;-65
2023/03/27 20:46:05;;;;;;;43.23;12.75;;;;;;;1.73;64.75;100367.56;5016692;57;1145358;-69
2023/03/27 20:51:14;;;;;;;27.50;10.30;;;;;;;1.60;64.97;100358.59;5000582;57;1138750;-73
2023/03/27 20:56:21;;;;;;;35.20;12.93;;;;;;;1.50;65.17;100362.05;4990963;57;1138957;-70
2023/03/27 21:01:27;;;;;;;28.17;9.63;;;;;;;1.38;65.52;100352.98;5001337;57;1138933;-73
2023/03/27 21:06:33;;;;;;;33.27;12.20;;;;;;;1.29;65.79;100352.53;5024019;56;1136974;-72
2023/03/27 21:11:38;;;;;;;38.13;13.23;;;;;;;1.22;66.38;100348.51;5035784;56;1138900;-69
2023/03/27 21:16:44;;;;;;;15.47;7.27;;;;;;;1.08;66.44;100349.51;5102058;56;1138698;-72
2023/03/27 21:21:50;;;;;;;12.77;4.90;;;;;;;0.97;66.06;100342.14;5118005;55;1136886;-74
2023/03/27 21:26:57;;;;;;;13.27;5.90;;;;;;;0.94;66.20;100334.45;5099039;56;1136736;-73
2023/03/27 21:32:02;;;;;;;13.88;6.03;;;;;;;0.97;66.36;100331.73;5108060;55;1136797;-69
2023/03/27 21:37:08;;;;;;;15.77;6.53;;;;;;;0.94;66.67;100326.19;5050218;56;1136849;-71
2023/03/27 21:42:15;;;;;;;13.07;5.17;;;;;;;0.95;67.17;100329.64;5086923;56;1136831;-67
2023/03/27 21:47:20;;;;;;;8.10;4.30;;;;;;;0.89;67.41;100342.93;5052175;56;1136823;-73
2023/03/27 21:52:26;;;;;;;22.03;9.23;;;;;;;0.88;68.25;100339.48;5087845;56;1144478;-72
2023/03/27 21:57:32;;;;;;;21.87;8.90;;;;;;;0.84;68.63;100334.45;5108657;56;1136604;-70
2023/03/27 22:02:37;;;;;;;24.07;8.97;;;;;;;0.83;69.25;100332.75;5086653;56;1136553;-74
2023/03/27 22:07:44;;;;;;;23.73;8.57;;;;;;;0.90;69.48;100323.34;5082515;56;1136559;-72
2023/03/27 22:12:49;;;;;;;30.97;11.07;;;;;;;1.00;69.40;100319.89;5087201;56;1136654;-73
2023/03/27 22:17:55;;;;;;;39.33;13.43;;;;;;;1.10;69.36;100301.66;4984204;57;1138821;-70
2023/03/27 22:23:01;;;;;;;30.17;12.07;;;;;;;1.17;69.27;100299.66;5067031;56;1138910;-68
2023/03/27 22:28:06;;;;;;;32.40;11.27;;;;;;;1.23;69.48;100300.22;5003627;57;1138741;-69
2023/03/27 22:33:12;;;;;;;27.90;11.87;;;;;;;1.24;69.72;100300.62;5067107;56;1138742;-73
2023/03/27 22:38:18;;;;;;;29.20;12.13;;;;;;;1.21;70.22;100295.56;4984173;57;1138737;-73
2023/03/27 22:43:24;;;;;;;26.13;10.10;;;;;;;1.17;70.45;100282.27;5067418;56;1138779;-74
2023/03/27 22:48:29;;;;;;;23.90;9.70;;;;;;;1.11;70.81;100276.46;5052743;57;1138647;-73
2023/03/27 22:53:36;;;;;;;26.67;12.37;;;;;;;1.03;72.08;100275.05;5067026;56;1136693;-77
2023/03/27 22:58:41;;;;;;;29.83;12.90;;;;;;;0.97;72.67;100270.09;5066848;56;1138664;-71
2023/03/27 23:03:48;;;;;;;28.17;11.18;;;;;;;0.90;74.34;100271.27;5076209;56;1138986;-71
2023/03/27 23:08:53;;;;;;;24.10;10.80;;;;;;;0.85;75.61;100270.61;5066511;56;1148492;-71
2023/03/27 23:13:59;;;;;;;25.67;8.37;;;;;;;0.82;77.17;100262.08;5066954;56;1139039;-69
2023/03/27 23:19:06;;;;;;;21.50;7.30;;;;;;;0.81;79.68;100266.88;5082784;57;1136692;-71
2023/03/27 23:24:12;;;;;;;12.18;4.72;;;;;;;0.81;80.62;100272.94;4986302;57;1136709;-76
2023/03/27 23:29:18;;;;;;;20.20;5.70;;;;;;;0.76;84.12;100273.61;4984916;56;1136660;-69
2023/03/27 23:34:23;;;;;;;13.28;4.33;;;;;;;0.72;88.06;100277.69;4985101;56;1136582;-76
2023/03/27 23:39:29;;;;;;;6.27;3.17;;;;;;;0.64;94.91;100276.69;5004490;57;1136639;-69
2023/03/27 23:44:35;;;;;;;8.33;2.93;;;;;;;0.57;100.00;100277.41;4980271;57;1134851;-69
2023/03/27 23:49:41;;;;;;;4.08;2.22;;;;;;;0.52;100.00;100274.59;4909492;57;1137000;-71